Monterey, VA (24465)

6:10 AM EST on January 23, 2017 (GMT -0500)
KVAMONTE3 | | Change Station

Elev 2924 ft 38.41 °N, 79.58 °W | Updated 25 seconds ago

Rain
Rain
42.5 °F
Feels Like 36 °F
N
13.0
Wind Variable Wind from NNW
Gusts 18.0 mph

Today
High -- | Low -- °F
--% Chance of Precip.
Yesterday
High -- | Low -- °F
Precip. -- in
Pressure 29.29 in
Visibility 0.2 miles
Clouds Overcast 100 ft
Windchill 36 °F
Dew Point 39 °F
Humidity 87%
Rainfall 0.18 in
Snow Depth Not available.
7:30 AM 5:30 PM
Waning Crescent, 19% visible
METAR KHSP 231055Z AUTO 09021G32KT 1/4SM -SN OVC001 02/02 A2929 RMK AO2 P0004
Pressure 29.29 in
Visibility 0.2 miles
Clouds Overcast 100 ft
Windchill 36 °F
Dew Point 39 °F
Humidity 87%
Rainfall 0.18 in
Snow Depth Not available.
7:30 AM 5:30 PM
Waning Crescent, 19% visible
METAR KHSP 231055Z AUTO 09021G32KT 1/4SM -SN OVC001 02/02 A2929 RMK AO2 P0004

Get Your Daily Forecast Email!

Thanks for signing up!

Be on the lookout for a verification email in your inbox.

You'll start receiving the daily forecast at 8 AM.

×

10-Day Weather Forecast

Almanac

Astronomy

Jan. 23, 2017 Rise Set
Actual Time
Civil Twilight
Nautical Twilight
Astronomical Twilight
Moon
Length of Visible Light
Length of Day
Tomorrow will be .
, % of the Moon is Illuminated

Today's Extremes

State Highs State Lows

Community

WunderPhotos

Upload Photos

1,962,540 photos uploaded!

WunderBlog® & News

Nearby

Air Quality

  Air Quality AQ Index Pollutant
Not available.

Snow Depth

Station Depth Elevation

Earthquake Activity

City Distance Mag. Time & Date
Minimum magnitude displayed is 2.5.

Coastal Water Temperatures

Place Temperature

Stations

Nearby Weather Stations

Station Location Temp. Windchill Dew Point Humidity Wind Precip. Elev Updated Type
                   

Watches & Warnings

There are currently no watches in effect.